sensor_id;sensor_type;location;lat;lon;timestamp;pressure;altitude;pressure_sealevel;temperature;humidity
9139;BME280;4604;48.616;9.548;2022-08-05T00:00:19;96499.22;;;25.54;51.86
9139;BME280;4604;48.616;9.548;2022-08-05T00:02:46;96460.56;;;25.37;52.97
9139;BME280;4604;48.616;9.548;2022-08-05T00:05:14;96409.19;;;25.03;52.61
9139;BME280;4604;48.616;9.548;2022-08-05T00:07:41;96461.44;;;25.26;55.53
9139;BME280;4604;48.616;9.548;2022-08-05T00:10:08;96452.75;;;24.78;59.26
9139;BME280;4604;48.616;9.548;2022-08-05T00:12:37;96497.84;;;24.94;59.69
9139;BME280;4604;48.616;9.548;2022-08-05T00:15:05;96488.25;;;24.87;59.83
9139;BME280;4604;48.616;9.548;2022-08-05T00:17:33;96453.97;;;24.70;59.86
9139;BME280;4604;48.616;9.548;2022-08-05T00:20:05;96498.59;;;24.90;60.59
9139;BME280;4604;48.616;9.548;2022-08-05T00:22:38;96459.50;;;24.64;61.45
9139;BME280;4604;48.616;9.548;2022-08-05T00:25:07;96413.22;;;24.31;61.78
9139;BME280;4604;48.616;9.548;2022-08-05T00:27:38;96500.63;;;24.83;62.44
9139;BME280;4604;48.616;9.548;2022-08-05T00:30:07;96424.25;;;24.30;63.12
9139;BME280;4604;48.616;9.548;2022-08-05T00:32:36;96429.91;;;24.17;62.92
9139;BME280;4604;48.616;9.548;2022-08-05T00:35:06;96513.34;;;24.70;62.05
9139;BME280;4604;48.616;9.548;2022-08-05T00:37:34;96508.50;;;24.72;62.01
9139;BME280;4604;48.616;9.548;2022-08-05T00:40:04;96517.88;;;24.70;62.82
9139;BME280;4604;48.616;9.548;2022-08-05T00:42:33;96511.81;;;24.63;64.05
9139;BME280;4604;48.616;9.548;2022-08-05T00:45:03;96509.97;;;24.51;62.70
9139;BME280;4604;48.616;9.548;2022-08-05T00:47:31;96475.63;;;24.23;63.30
9139;BME280;4604;48.616;9.548;2022-08-05T00:49:58;96522.97;;;24.43;63.82
9139;BME280;4604;48.616;9.548;2022-08-05T00:52:28;96529.75;;;24.45;64.68
9139;BME280;4604;48.616;9.548;2022-08-05T00:54:55;96483.84;;;24.17;64.38
9139;BME280;4604;48.616;9.548;2022-08-05T00:57:22;96504.84;;;24.26;65.15
9139;BME280;4604;48.616;9.548;2022-08-05T00:59:49;96496.75;;;24.26;65.69
9139;BME280;4604;48.616;9.548;2022-08-05T01:02:20;96513.63;;;24.22;65.90
9139;BME280;4604;48.616;9.548;2022-08-05T01:04:47;96515.16;;;24.18;65.76
9139;BME280;4604;48.616;9.548;2022-08-05T01:07:20;96503.44;;;24.12;66.32
9139;BME280;4604;48.616;9.548;2022-08-05T01:09:47;96510.81;;;24.05;66.41
9139;BME280;4604;48.616;9.548;2022-08-05T01:12:21;96435.06;;;23.47;66.96
9139;BME280;4604;48.616;9.548;2022-08-05T01:14:54;96508.00;;;23.88;67.09
9139;BME280;4604;48.616;9.548;2022-08-05T01:17:28;96502.03;;;23.86;66.75
9139;BME280;4604;48.616;9.548;2022-08-05T01:20:08;96505.19;;;23.83;66.50
9139;BME280;4604;48.616;9.548;2022-08-05T01:22:53;96526.16;;;23.81;66.43
9139;BME280;4604;48.616;9.548;2022-08-05T01:25:45;96492.72;;;23.58;65.88
9139;BME280;4604;48.616;9.548;2022-08-05T01:28:23;96527.34;;;23.73;65.29
9139;BME280;4604;48.616;9.548;2022-08-05T01:30:53;96535.16;;;23.75;66.18
9139;BME280;4604;48.616;9.548;2022-08-05T01:33:32;96545.78;;;23.69;66.91
9139;BME280;4604;48.616;9.548;2022-08-05T01:36:02;96544.84;;;23.64;67.09
9139;BME280;4604;48.616;9.548;2022-08-05T01:38:35;96469.31;;;23.05;67.18
9139;BME280;4604;48.616;9.548;2022-08-05T01:41:03;96541.97;;;23.35;67.33
9139;BME280;4604;48.616;9.548;2022-08-05T01:43:32;96591.91;;;23.49;65.82
9139;BME280;4604;48.616;9.548;2022-08-05T01:46:01;96594.94;;;23.53;65.58
9139;BME280;4604;48.616;9.548;2022-08-05T01:48:28;96563.25;;;23.25;65.91
9139;BME280;4604;48.616;9.548;2022-08-05T01:51:00;96582.16;;;23.37;66.68
9139;BME280;4604;48.616;9.548;2022-08-05T01:53:29;96612.25;;;23.45;66.75
9139;BME280;4604;48.616;9.548;2022-08-05T01:55:58;96610.72;;;23.38;67.26
9139;BME280;4604;48.616;9.548;2022-08-05T01:58:28;96592.28;;;23.23;67.49
9139;BME280;4604;48.616;9.548;2022-08-05T02:00:58;96610.34;;;23.34;67.93
9139;BME280;4604;48.616;9.548;2022-08-05T02:03:31;96610.34;;;23.34;68.06
9139;BME280;4604;48.616;9.548;2022-08-05T02:06:00;96603.03;;;23.23;68.35
9139;BME280;4604;48.616;9.548;2022-08-05T02:08:27;96606.34;;;23.25;68.54
9139;BME280;4604;48.616;9.548;2022-08-05T02:10:58;96615.63;;;23.11;68.82
9139;BME280;4604;48.616;9.548;2022-08-05T02:13:32;96634.53;;;23.22;69.43
9139;BME280;4604;48.616;9.548;2022-08-05T02:16:04;96580.09;;;22.65;70.18
9139;BME280;4604;48.616;9.548;2022-08-05T02:18:36;96637.03;;;23.05;67.82
9139;BME280;4604;48.616;9.548;2022-08-05T02:21:11;96654.41;;;23.21;66.18
9139;BME280;4604;48.616;9.548;2022-08-05T02:23:40;96631.25;;;23.20;66.21
9139;BME280;4604;48.616;9.548;2022-08-05T02:26:09;96647.69;;;23.31;65.07
9139;BME280;4604;48.616;9.548;2022-08-05T02:28:41;96643.50;;;23.35;64.18
9139;BME280;4604;48.616;9.548;2022-08-05T02:31:13;96654.06;;;23.48;63.64
9139;BME280;4604;48.616;9.548;2022-08-05T02:33:46;96634.28;;;23.42;64.20
9139;BME280;4604;48.616;9.548;2022-08-05T02:36:19;96649.66;;;23.54;64.55
9139;BME280;4604;48.616;9.548;2022-08-05T02:38:48;96651.97;;;23.50;65.25
9139;BME280;4604;48.616;9.548;2022-08-05T02:41:19;96628.06;;;23.42;64.84
9139;BME280;4604;48.616;9.548;2022-08-05T02:43:46;96641.28;;;23.43;64.83
9139;BME280;4604;48.616;9.548;2022-08-05T02:46:22;96635.09;;;23.43;64.45
9139;BME280;4604;48.616;9.548;2022-08-05T02:48:50;96639.56;;;23.49;63.66
9139;BME280;4604;48.616;9.548;2022-08-05T02:51:18;96637.22;;;23.53;63.27
9139;BME280;4604;48.616;9.548;2022-08-05T02:53:45;96604.28;;;23.39;63.19
9139;BME280;4604;48.616;9.548;2022-08-05T02:56:15;96640.31;;;23.56;63.50
9139;BME280;4604;48.616;9.548;2022-08-05T02:58:43;96641.22;;;23.50;64.17
9139;BME280;4604;48.616;9.548;2022-08-05T03:01:15;96646.84;;;23.48;65.02
9139;BME280;4604;48.616;9.548;2022-08-05T03:03:46;96640.03;;;23.46;65.37
9139;BME280;4604;48.616;9.548;2022-08-05T03:06:18;96641.28;;;23.43;65.42
9139;BME280;4604;48.616;9.548;2022-08-05T03:08:46;96635.19;;;23.36;65.08
9139;BME280;4604;48.616;9.548;2022-08-05T03:11:19;96640.41;;;23.31;64.67
9139;BME280;4604;48.616;9.548;2022-08-05T03:13:46;96642.00;;;23.39;64.95
9139;BME280;4604;48.616;9.548;2022-08-05T03:16:15;96646.53;;;23.38;65.52
9139;BME280;4604;48.616;9.548;2022-08-05T03:18:43;96628.00;;;23.30;65.81
9139;BME280;4604;48.616;9.548;2022-08-05T03:21:11;96648.06;;;23.34;66.44
9139;BME280;4604;48.616;9.548;2022-08-05T03:23:40;96629.50;;;23.26;66.69
9139;BME280;4604;48.616;9.548;2022-08-05T03:26:08;96633.72;;;23.22;67.27
9139;BME280;4604;48.616;9.548;2022-08-05T03:28:36;96652.66;;;23.15;67.52
9139;BME280;4604;48.616;9.548;2022-08-05T03:31:03;96648.75;;;23.11;67.85
9139;BME280;4604;48.616;9.548;2022-08-05T03:33:30;96636.41;;;23.03;68.16
9139;BME280;4604;48.616;9.548;2022-08-05T03:36:00;96650.41;;;23.12;69.08
9139;BME280;4604;48.616;9.548;2022-08-05T03:38:27;96638.28;;;23.03;69.56
9139;BME280;4604;48.616;9.548;2022-08-05T03:40:54;96655.72;;;23.00;69.62
9139;BME280;4604;48.616;9.548;2022-08-05T03:43:20;96655.28;;;22.97;69.99
9139;BME280;4604;48.616;9.548;2022-08-05T03:45:49;96653.53;;;22.91;70.00
9139;BME280;4604;48.616;9.548;2022-08-05T03:48:17;96655.66;;;22.82;70.18
9139;BME280;4604;48.616;9.548;2022-08-05T03:50:56;96661.72;;;22.77;70.54
9139;BME280;4604;48.616;9.548;2022-08-05T03:53:29;96654.56;;;22.71;70.99
9139;BME280;4604;48.616;9.548;2022-08-05T03:56:01;96660.00;;;22.64;71.45
9139;BME280;4604;48.616;9.548;2022-08-05T03:58:30;96650.81;;;22.54;71.41
9139;BME280;4604;48.616;9.548;2022-08-05T04:01:01;96652.44;;;22.55;71.68
9139;BME280;4604;48.616;9.548;2022-08-05T04:03:32;96668.41;;;22.50;72.21
9139;BME280;4604;48.616;9.548;2022-08-05T04:06:02;96669.13;;;22.38;72.50
9139;BME280;4604;48.616;9.548;2022-08-05T04:08:31;96675.34;;;22.39;72.64
9139;BME280;4604;48.616;9.548;2022-08-05T04:10:58;96657.50;;;22.19;72.76
9139;BME280;4604;48.616;9.548;2022-08-05T04:13:27;96674.59;;;22.32;72.49
9139;BME280;4604;48.616;9.548;2022-08-05T04:15:55;96676.22;;;22.33;72.56
9139;BME280;4604;48.616;9.548;2022-08-05T04:18:22;96680.56;;;22.34;72.82
9139;BME280;4604;48.616;9.548;2022-08-05T04:20:53;96679.19;;;22.25;73.53
9139;BME280;4604;48.616;9.548;2022-08-05T04:23:22;96684.56;;;22.25;73.92
9139;BME280;4604;48.616;9.548;2022-08-05T04:25:50;96687.00;;;22.26;73.92
9139;BME280;4604;48.616;9.548;2022-08-05T04:28:17;96700.03;;;22.29;74.18
9139;BME280;4604;48.616;9.548;2022-08-05T04:30:44;96705.63;;;22.28;74.16
9139;BME280;4604;48.616;9.548;2022-08-05T04:33:12;96691.22;;;22.22;74.24
9139;BME280;4604;48.616;9.548;2022-08-05T04:35:39;96688.28;;;22.23;74.35
9139;BME280;4604;48.616;9.548;2022-08-05T04:38:07;96681.06;;;22.24;74.16
9139;BME280;4604;48.616;9.548;2022-08-05T04:40:34;96683.97;;;22.22;74.57
9139;BME280;4604;48.616;9.548;2022-08-05T04:43:03;96695.94;;;22.27;74.78
9139;BME280;4604;48.616;9.548;2022-08-05T04:45:30;96711.41;;;22.31;74.43
9139;BME280;4604;48.616;9.548;2022-08-05T04:48:02;96701.47;;;22.32;74.58
9139;BME280;4604;48.616;9.548;2022-08-05T04:50:30;96704.75;;;22.34;74.69
9139;BME280;4604;48.616;9.548;2022-08-05T04:52:57;96711.72;;;22.41;74.69
9139;BME280;4604;48.616;9.548;2022-08-05T04:55:23;96699.06;;;22.49;74.46
9139;BME280;4604;48.616;9.548;2022-08-05T04:57:50;96684.34;;;22.51;74.39
9139;BME280;4604;48.616;9.548;2022-08-05T05:00:25;96685.53;;;22.55;74.30
9139;BME280;4604;48.616;9.548;2022-08-05T05:02:52;96670.78;;;22.39;74.63
9139;BME280;4604;48.616;9.548;2022-08-05T05:05:20;96713.94;;;22.51;75.22
9139;BME280;4604;48.616;9.548;2022-08-05T05:07:47;96721.56;;;22.54;74.74
9139;BME280;4604;48.616;9.548;2022-08-05T05:10:14;96735.38;;;22.58;74.98
9139;BME280;4604;48.616;9.548;2022-08-05T05:12:40;96753.38;;;22.57;75.51
9139;BME280;4604;48.616;9.548;2022-08-05T05:15:08;96731.91;;;22.51;75.40
9139;BME280;4604;48.616;9.548;2022-08-05T05:17:38;96746.97;;;22.58;75.82
9139;BME280;4604;48.616;9.548;2022-08-05T05:20:06;96743.03;;;22.61;75.79
9139;BME280;4604;48.616;9.548;2022-08-05T05:22:34;96756.22;;;22.62;75.65
9139;BME280;4604;48.616;9.548;2022-08-05T05:25:01;96767.75;;;22.70;75.14
9139;BME280;4604;48.616;9.548;2022-08-05T05:27:30;96793.66;;;22.71;75.47
9139;BME280;4604;48.616;9.548;2022-08-05T05:29:57;96819.69;;;22.70;75.30
9139;BME280;4604;48.616;9.548;2022-08-05T05:32:24;96828.63;;;22.71;75.35
9139;BME280;4604;48.616;9.548;2022-08-05T05:34:52;96847.28;;;22.65;75.99
9139;BME280;4604;48.616;9.548;2022-08-05T05:37:21;96851.50;;;22.48;76.40
9139;BME280;4604;48.616;9.548;2022-08-05T05:39:48;96879.75;;;22.71;74.57
9139;BME280;4604;48.616;9.548;2022-08-05T05:42:15;96893.97;;;22.46;74.97
9139;BME280;4604;48.616;9.548;2022-08-05T05:44:42;96900.59;;;22.43;74.35
9139;BME280;4604;48.616;9.548;2022-08-05T05:47:08;96903.97;;;22.26;76.03
9139;BME280;4604;48.616;9.548;2022-08-05T05:49:35;96904.28;;;21.97;77.23
9139;BME280;4604;48.616;9.548;2022-08-05T05:52:04;96893.66;;;22.16;76.34
9139;BME280;4604;48.616;9.548;2022-08-05T05:54:31;96883.28;;;22.26;75.64
9139;BME280;4604;48.616;9.548;2022-08-05T05:56:58;96904.25;;;22.56;74.66
9139;BME280;4604;48.616;9.548;2022-08-05T05:59:24;96879.00;;;22.57;73.58
9139;BME280;4604;48.616;9.548;2022-08-05T06:01:51;96899.44;;;22.96;72.75
9139;BME280;4604;48.616;9.548;2022-08-05T06:04:18;96858.16;;;22.77;71.59
9139;BME280;4604;48.616;9.548;2022-08-05T06:06:45;96905.56;;;23.35;70.99
9139;BME280;4604;48.616;9.548;2022-08-05T06:09:13;96912.03;;;23.53;70.14
9139;BME280;4604;48.616;9.548;2022-08-05T06:11:40;96906.31;;;23.42;71.41
9139;BME280;4604;48.616;9.548;2022-08-05T06:14:07;96918.00;;;23.36;70.84
9139;BME280;4604;48.616;9.548;2022-08-05T06:16:34;96923.75;;;23.40;70.42
9139;BME280;4604;48.616;9.548;2022-08-05T06:19:00;96922.81;;;23.53;69.49
9139;BME280;4604;48.616;9.548;2022-08-05T06:21:27;96932.09;;;23.57;69.04
9139;BME280;4604;48.616;9.548;2022-08-05T06:23:56;96937.09;;;23.53;69.21
9139;BME280;4604;48.616;9.548;2022-08-05T06:26:24;96930.72;;;23.47;69.90
9139;BME280;4604;48.616;9.548;2022-08-05T06:28:51;96944.69;;;23.63;69.72
9139;BME280;4604;48.616;9.548;2022-08-05T06:31:20;96937.97;;;23.72;70.23
9139;BME280;4604;48.616;9.548;2022-08-05T06:33:47;96940.28;;;23.68;70.61
9139;BME280;4604;48.616;9.548;2022-08-05T06:36:14;96909.13;;;23.54;70.11
9139;BME280;4604;48.616;9.548;2022-08-05T06:38:41;96938.59;;;23.74;70.07
9139;BME280;4604;48.616;9.548;2022-08-05T06:41:08;96903.28;;;23.57;70.00
9139;BME280;4604;48.616;9.548;2022-08-05T06:43:36;96942.50;;;23.78;70.48
9139;BME280;4604;48.616;9.548;2022-08-05T06:46:03;96944.75;;;23.81;71.23
9139;BME280;4604;48.616;9.548;2022-08-05T06:48:30;96934.63;;;23.77;72.34
9139;BME280;4604;48.616;9.548;2022-08-05T06:50:59;96933.13;;;23.99;73.06
9139;BME280;4604;48.616;9.548;2022-08-05T06:53:26;96912.63;;;23.98;72.65
9139;BME280;4604;48.616;9.548;2022-08-05T06:55:53;96934.41;;;24.33;72.06
9139;BME280;4604;48.616;9.548;2022-08-05T06:58:20;96930.44;;;24.54;71.51
9139;BME280;4604;48.616;9.548;2022-08-05T07:00:48;96926.19;;;24.77;69.95
9139;BME280;4604;48.616;9.548;2022-08-05T07:03:15;96931.75;;;24.94;68.23
9139;BME280;4604;48.616;9.548;2022-08-05T07:05:41;96911.13;;;24.99;67.27
9139;BME280;4604;48.616;9.548;2022-08-05T07:08:08;96917.06;;;25.20;67.05
9139;BME280;4604;48.616;9.548;2022-08-05T07:10:35;96914.72;;;25.35;66.34
9139;BME280;4604;48.616;9.548;2022-08-05T07:13:02;96906.50;;;25.54;65.44
9139;BME280;4604;48.616;9.548;2022-08-05T07:15:47;96902.75;;;25.67;64.64
9139;BME280;4604;48.616;9.548;2022-08-05T07:18:32;96899.47;;;25.88;63.79
9139;BME280;4604;48.616;9.548;2022-08-05T07:21:01;96904.84;;;26.00;63.07
9139;BME280;4604;48.616;9.548;2022-08-05T07:23:28;96907.28;;;26.13;62.75
9139;BME280;4604;48.616;9.548;2022-08-05T07:25:55;96903.97;;;26.23;62.26
9139;BME280;4604;48.616;9.548;2022-08-05T07:28:23;96906.63;;;26.35;61.70
9139;BME280;4604;48.616;9.548;2022-08-05T07:30:52;96904.81;;;26.52;60.94
9139;BME280;4604;48.616;9.548;2022-08-05T07:33:19;96888.69;;;26.57;60.08
9139;BME280;4604;48.616;9.548;2022-08-05T07:35:46;96913.50;;;26.66;57.57
9139;BME280;4604;48.616;9.548;2022-08-05T07:38:13;96913.44;;;26.78;57.18
9139;BME280;4604;48.616;9.548;2022-08-05T07:40:40;96922.16;;;26.97;56.08
9139;BME280;4604;48.616;9.548;2022-08-05T07:43:08;96911.06;;;26.81;55.76
9139;BME280;4604;48.616;9.548;2022-08-05T07:45:39;96930.19;;;26.92;57.08
9139;BME280;4604;48.616;9.548;2022-08-05T07:48:09;96935.34;;;26.76;55.70
9139;BME280;4604;48.616;9.548;2022-08-05T07:50:36;96938.22;;;26.58;56.17
9139;BME280;4604;48.616;9.548;2022-08-05T07:53:03;96947.97;;;26.71;57.15
9139;BME280;4604;48.616;9.548;2022-08-05T07:55:30;96936.25;;;26.82;56.48
9139;BME280;4604;48.616;9.548;2022-08-05T07:57:56;96934.56;;;26.93;54.24
9139;BME280;4604;48.616;9.548;2022-08-05T08:00:23;96944.06;;;26.78;54.29
9139;BME280;4604;48.616;9.548;2022-08-05T08:02:50;96947.97;;;26.71;54.52
9139;BME280;4604;48.616;9.548;2022-08-05T08:05:18;96960.09;;;26.97;54.40
9139;BME280;4604;48.616;9.548;2022-08-05T08:07:45;96963.00;;;27.07;53.85
9139;BME280;4604;48.616;9.548;2022-08-05T08:10:13;96957.41;;;27.14;54.16
9139;BME280;4604;48.616;9.548;2022-08-05T08:12:40;96945.97;;;27.23;53.34
9139;BME280;4604;48.616;9.548;2022-08-05T08:15:09;96952.56;;;27.16;51.99
9139;BME280;4604;48.616;9.548;2022-08-05T08:17:36;96953.47;;;27.04;52.18
9139;BME280;4604;48.616;9.548;2022-08-05T08:20:04;96939.16;;;26.92;50.90
9139;BME280;4604;48.616;9.548;2022-08-05T08:22:32;96957.97;;;27.27;51.69
9139;BME280;4604;48.616;9.548;2022-08-05T08:24:59;96979.00;;;27.37;50.37
9139;BME280;4604;48.616;9.548;2022-08-05T08:27:26;96956.56;;;27.25;48.90
9139;BME280;4604;48.616;9.548;2022-08-05T08:29:53;96959.59;;;27.28;49.30
9139;BME280;4604;48.616;9.548;2022-08-05T08:32:20;96958.72;;;27.40;48.55
9139;BME280;4604;48.616;9.548;2022-08-05T08:34:47;96963.53;;;27.38;48.85
9139;BME280;4604;48.616;9.548;2022-08-05T08:37:13;96965.44;;;27.37;48.39
9139;BME280;4604;48.616;9.548;2022-08-05T08:39:42;96968.16;;;27.37;48.85
9139;BME280;4604;48.616;9.548;2022-08-05T08:42:09;96958.22;;;27.60;47.75
9139;BME280;4604;48.616;9.548;2022-08-05T08:44:37;96955.91;;;27.35;49.06
9139;BME280;4604;48.616;9.548;2022-08-05T08:47:06;96956.88;;;27.45;46.99
9139;BME280;4604;48.616;9.548;2022-08-05T08:49:34;96963.91;;;27.58;47.57
9139;BME280;4604;48.616;9.548;2022-08-05T08:52:09;96958.47;;;27.41;47.72
9139;BME280;4604;48.616;9.548;2022-08-05T08:54:37;96969.78;;;27.72;46.24
9139;BME280;4604;48.616;9.548;2022-08-05T08:57:06;96973.34;;;27.89;46.41
9139;BME280;4604;48.616;9.548;2022-08-05T08:59:33;96976.28;;;27.71;45.75
9139;BME280;4604;48.616;9.548;2022-08-05T09:02:04;96955.81;;;27.97;45.78
9139;BME280;4604;48.616;9.548;2022-08-05T09:04:33;96967.00;;;27.84;45.46
9139;BME280;4604;48.616;9.548;2022-08-05T09:07:03;96956.25;;;27.89;45.57
9139;BME280;4604;48.616;9.548;2022-08-05T09:09:30;96937.09;;;27.62;45.26
9139;BME280;4604;48.616;9.548;2022-08-05T09:11:58;96946.59;;;27.98;45.25
9139;BME280;4604;48.616;9.548;2022-08-05T09:14:26;96956.63;;;28.36;44.33
9139;BME280;4604;48.616;9.548;2022-08-05T09:16:53;96947.91;;;28.56;43.92
9139;BME280;4604;48.616;9.548;2022-08-05T09:19:20;96945.22;;;28.56;43.67
9139;BME280;4604;48.616;9.548;2022-08-05T09:21:47;96944.56;;;28.71;44.46
9139;BME280;4604;48.616;9.548;2022-08-05T09:24:13;96935.44;;;28.83;43.27
9139;BME280;4604;48.616;9.548;2022-08-05T09:26:40;96929.59;;;28.96;43.43
9139;BME280;4604;48.616;9.548;2022-08-05T09:29:07;96931.50;;;28.95;43.24
9139;BME280;4604;48.616;9.548;2022-08-05T09:31:35;96933.44;;;29.00;43.89
9139;BME280;4604;48.616;9.548;2022-08-05T09:34:05;96898.13;;;29.00;42.86
9139;BME280;4604;48.616;9.548;2022-08-05T09:36:39;96918.34;;;28.87;42.71
9139;BME280;4604;48.616;9.548;2022-08-05T09:39:07;96919.25;;;28.66;43.48
9139;BME280;4604;48.616;9.548;2022-08-05T09:41:53;96912.56;;;28.78;44.06
9139;BME280;4604;48.616;9.548;2022-08-05T09:44:32;96912.91;;;28.60;44.21
9139;BME280;4604;48.616;9.548;2022-08-05T09:47:09;96917.34;;;28.22;44.31
9139;BME280;4604;48.616;9.548;2022-08-05T09:49:40;96905.69;;;28.22;43.91
9139;BME280;4604;48.616;9.548;2022-08-05T09:52:18;96899.16;;;28.23;43.81
9139;BME280;4604;48.616;9.548;2022-08-05T09:54:58;96902.50;;;28.08;44.23
9139;BME280;4604;48.616;9.548;2022-08-05T09:57:34;96900.66;;;28.13;45.01
9139;BME280;4604;48.616;9.548;2022-08-05T10:00:06;96907.53;;;28.21;44.31
9139;BME280;4604;48.616;9.548;2022-08-05T10:02:37;96905.81;;;28.54;43.65
9139;BME280;4604;48.616;9.548;2022-08-05T10:05:09;96904.84;;;28.92;42.98
9139;BME280;4604;48.616;9.548;2022-08-05T10:07:48;96905.81;;;29.08;41.88
9139;BME280;4604;48.616;9.548;2022-08-05T10:10:17;96894.44;;;29.11;41.65
9139;BME280;4604;48.616;9.548;2022-08-05T10:12:46;96890.13;;;29.15;41.18
9139;BME280;4604;48.616;9.548;2022-08-05T10:15:22;96888.69;;;29.40;41.92
9139;BME280;4604;48.616;9.548;2022-08-05T10:18:13;96889.44;;;29.68;41.16
9139;BME280;4604;48.616;9.548;2022-08-05T10:20:42;96842.00;;;29.53;41.73
9139;BME280;4604;48.616;9.548;2022-08-05T10:23:11;96879.53;;;29.99;41.69
9139;BME280;4604;48.616;9.548;2022-08-05T10:25:39;96878.22;;;30.12;40.50
9139;BME280;4604;48.616;9.548;2022-08-05T10:28:06;96881.06;;;30.27;40.85
9139;BME280;4604;48.616;9.548;2022-08-05T10:30:34;96877.25;;;30.28;40.53
9139;BME280;4604;48.616;9.548;2022-08-05T10:33:01;96871.00;;;30.38;40.23
9139;BME280;4604;48.616;9.548;2022-08-05T10:35:31;96850.09;;;30.48;38.58
9139;BME280;4604;48.616;9.548;2022-08-05T10:37:59;96877.91;;;30.76;38.54
9139;BME280;4604;48.616;9.548;2022-08-05T10:40:32;96878.41;;;30.58;38.95
9139;BME280;4604;48.616;9.548;2022-08-05T10:43:12;96888.50;;;30.67;38.49
9139;BME280;4604;48.616;9.548;2022-08-05T10:45:54;96879.22;;;30.53;38.04
9139;BME280;4604;48.616;9.548;2022-08-05T10:48:33;96887.44;;;30.58;38.44
9139;BME280;4604;48.616;9.548;2022-08-05T10:51:05;96889.88;;;30.60;38.40
9139;BME280;4604;48.616;9.548;2022-08-05T10:53:37;96892.25;;;30.36;38.44
9139;BME280;4604;48.616;9.548;2022-08-05T10:56:06;96893.66;;;30.43;38.46
9139;BME280;4604;48.616;9.548;2022-08-05T10:58:33;96885.22;;;30.60;37.85
9139;BME280;4604;48.616;9.548;2022-08-05T11:01:04;96889.88;;;30.70;37.36
9139;BME280;4604;48.616;9.548;2022-08-05T11:03:31;96888.88;;;30.91;36.86
9139;BME280;4604;48.616;9.548;2022-08-05T11:06:05;96892.69;;;31.06;38.49
9139;BME280;4604;48.616;9.548;2022-08-05T11:08:32;96880.97;;;31.00;38.21
9139;BME280;4604;48.616;9.548;2022-08-05T11:11:30;96893.53;;;31.17;38.21
9139;BME280;4604;48.616;9.548;2022-08-05T11:13:58;96896.00;;;31.39;37.91
9139;BME280;4604;48.616;9.548;2022-08-05T11:16:28;96879.34;;;31.40;37.23
9139;BME280;4604;48.616;9.548;2022-08-05T11:19:24;96900.59;;;31.28;37.03
9139;BME280;4604;48.616;9.548;2022-08-05T11:21:53;96900.63;;;31.43;38.33
9139;BME280;4604;48.616;9.548;2022-08-05T11:24:20;96876.63;;;31.30;36.98
9139;BME280;4604;48.616;9.548;2022-08-05T11:26:49;96885.31;;;31.01;36.55
9139;BME280;4604;48.616;9.548;2022-08-05T11:29:35;96898.41;;;30.89;36.63
9139;BME280;4604;48.616;9.548;2022-08-05T11:32:25;96888.31;;;30.89;36.63
9139;BME280;4604;48.616;9.548;2022-08-05T11:34:52;96871.03;;;30.43;36.78
9139;BME280;4604;48.616;9.548;2022-08-05T11:41:00;96893.16;;;30.77;36.19
9139;BME280;4604;48.616;9.548;2022-08-05T11:43:29;96889.16;;;30.95;36.35
9139;BME280;4604;48.616;9.548;2022-08-05T11:45:56;96890.25;;;31.09;36.00
9139;BME280;4604;48.616;9.548;2022-08-05T11:48:23;96879.06;;;31.06;35.89
9139;BME280;4604;48.616;9.548;2022-08-05T11:50:51;96882.63;;;31.22;36.28
9139;BME280;4604;48.616;9.548;2022-08-05T11:53:19;96880.16;;;31.35;35.52
9139;BME280;4604;48.616;9.548;2022-08-05T11:55:57;96891.09;;;31.41;34.33
9139;BME280;4604;48.616;9.548;2022-08-05T11:58:34;96880.47;;;31.39;34.43
9139;BME280;4604;48.616;9.548;2022-08-05T12:01:02;96868.44;;;31.25;35.64
9139;BME280;4604;48.616;9.548;2022-08-05T12:03:33;96870.06;;;31.36;35.65
9139;BME280;4604;48.616;9.548;2022-08-05T12:06:06;96868.13;;;31.67;35.83
9139;BME280;4604;48.616;9.548;2022-08-05T12:08:39;96874.38;;;31.83;35.13
9139;BME280;4604;48.616;9.548;2022-08-05T12:11:07;96871.34;;;32.00;35.46
9139;BME280;4604;48.616;9.548;2022-08-05T12:13:37;96823.09;;;31.65;36.54
9139;BME280;4604;48.616;9.548;2022-08-05T12:16:08;96825.53;;;31.76;34.94
9139;BME280;4604;48.616;9.548;2022-08-05T12:18:35;96871.03;;;32.12;34.47
9139;BME280;4604;48.616;9.548;2022-08-05T12:21:14;96856.34;;;31.82;34.23
9139;BME280;4604;48.616;9.548;2022-08-05T12:23:51;96872.75;;;31.72;34.25
9139;BME280;4604;48.616;9.548;2022-08-05T12:26:19;96860.00;;;31.47;34.13
9139;BME280;4604;48.616;9.548;2022-08-05T12:28:47;96858.88;;;31.53;34.27
9139;BME280;4604;48.616;9.548;2022-08-05T12:31:14;96858.34;;;31.56;33.91
9139;BME280;4604;48.616;9.548;2022-08-05T12:33:43;96856.44;;;31.51;32.89
9139;BME280;4604;48.616;9.548;2022-08-05T12:36:10;96853.69;;;31.62;32.58
9139;BME280;4604;48.616;9.548;2022-08-05T12:38:38;96850.94;;;31.72;32.48
9139;BME280;4604;48.616;9.548;2022-08-05T12:41:08;96853.38;;;31.73;33.76
9139;BME280;4604;48.616;9.548;2022-08-05T12:43:50;96824.78;;;31.61;33.06
9139;BME280;4604;48.616;9.548;2022-08-05T12:46:21;96838.91;;;31.83;33.35
9139;BME280;4604;48.616;9.548;2022-08-05T12:48:56;96827.13;;;31.98;33.06
9139;BME280;4604;48.616;9.548;2022-08-05T12:51:23;96832.22;;;32.20;33.50
9139;BME280;4604;48.616;9.548;2022-08-05T12:53:57;96796.25;;;32.03;32.88
9139;BME280;4604;48.616;9.548;2022-08-05T12:56:27;96835.06;;;32.00;33.04
9139;BME280;4604;48.616;9.548;2022-08-05T12:59:12;96811.81;;;31.97;33.71
9139;BME280;4604;48.616;9.548;2022-08-05T13:01:39;96829.84;;;32.03;33.49
9139;BME280;4604;48.616;9.548;2022-08-05T13:04:07;96821.19;;;31.70;33.26
9139;BME280;4604;48.616;9.548;2022-08-05T13:06:37;96811.28;;;32.00;33.43
9139;BME280;4604;48.616;9.548;2022-08-05T13:09:08;96819.84;;;32.33;34.27
9139;BME280;4604;48.616;9.548;2022-08-05T13:11:40;96779.47;;;32.25;32.86
9139;BME280;4604;48.616;9.548;2022-08-05T13:14:20;96806.16;;;32.38;32.49
9139;BME280;4604;48.616;9.548;2022-08-05T13:16:48;96801.50;;;32.44;33.79
9139;BME280;4604;48.616;9.548;2022-08-05T13:19:16;96815.66;;;32.46;33.40
9139;BME280;4604;48.616;9.548;2022-08-05T13:21:45;96802.53;;;32.48;33.35
9139;BME280;4604;48.616;9.548;2022-08-05T13:24:13;96806.09;;;32.48;34.26
9139;BME280;4604;48.616;9.548;2022-08-05T13:26:42;96800.56;;;32.64;34.26
9139;BME280;4604;48.616;9.548;2022-08-05T13:29:09;96805.94;;;32.74;34.01
9139;BME280;4604;48.616;9.548;2022-08-05T13:31:40;96801.91;;;33.00;33.80
9139;BME280;4604;48.616;9.548;2022-08-05T13:34:08;96733.69;;;32.56;33.10
9139;BME280;4604;48.616;9.548;2022-08-05T13:36:37;96791.78;;;33.01;32.65
9139;BME280;4604;48.616;9.548;2022-08-05T13:39:05;96793.91;;;33.09;33.33